createdAt,value
2016-06-07T00:00:43.116Z,0
2016-06-07T00:01:43.150Z,0
2016-06-07T00:02:43.153Z,0
2016-06-07T00:03:43.187Z,0
2016-06-07T00:04:43.032Z,0
2016-06-07T00:05:43.239Z,0
2016-06-07T00:06:43.616Z,0
2016-06-07T00:07:43.244Z,0
2016-06-07T00:08:43.137Z,0
2016-06-07T00:09:43.156Z,0
2016-06-07T00:10:43.159Z,0
2016-06-07T00:11:43.333Z,0
2016-06-07T00:12:43.383Z,0
2016-06-07T00:13:43.229Z,0
2016-06-07T00:14:43.419Z,0
2016-06-07T00:15:43.422Z,0
2016-06-07T00:16:43.456Z,0
2016-06-07T00:17:43.490Z,0
2016-06-07T00:18:43.476Z,0
2016-06-07T00:19:43.511Z,0
2016-06-07T00:20:43.545Z,0
2016-06-07T00:21:43.579Z,0
2016-06-07T00:22:43.567Z,0
2016-06-07T00:23:43.600Z,0
2016-06-07T00:24:43.602Z,0
2016-06-07T00:25:43.636Z,0
2016-06-07T00:26:43.655Z,0
2016-06-07T00:27:43.672Z,0
2016-06-07T00:28:43.692Z,0
2016-06-07T00:29:43.554Z,0
2016-06-07T00:30:43.572Z,0
2016-06-07T00:31:43.761Z,0
2016-06-07T00:32:43.764Z,0
2016-06-07T00:33:43.783Z,0
2016-06-07T00:34:43.802Z,0
2016-06-07T00:35:44.101Z,0
2016-06-07T00:36:47.432Z,0
2016-06-07T00:37:43.887Z,0
2016-06-07T00:38:43.906Z,0
2016-06-07T00:39:43.924Z,0
2016-06-07T00:40:43.942Z,0
2016-06-07T00:41:43.960Z,0
2016-06-07T00:42:43.979Z,0
2016-06-07T00:43:44.013Z,0
2016-06-07T00:44:43.890Z,0
2016-06-07T00:45:44.049Z,0
2016-06-07T00:46:44.052Z,0
2016-06-07T00:47:44.102Z,0
2016-06-07T00:48:44.120Z,0
2016-06-07T00:49:44.139Z,0
2016-06-07T00:50:44.641Z,0
2016-06-07T00:51:44.597Z,0
2016-06-07T00:52:44.209Z,0
2016-06-07T00:53:44.196Z,0
2016-06-07T00:54:44.230Z,0
2016-06-07T00:55:44.248Z,0
2016-06-07T00:56:44.267Z,0
2016-06-07T00:57:44.301Z,0
2016-06-07T00:58:44.334Z,0
2016-06-07T00:59:44.322Z,0
2016-06-07T01:00:44.184Z,0
2016-06-07T01:01:44.374Z,0
2016-06-07T01:02:44.377Z,0
2016-06-07T01:03:44.427Z,0
2016-06-07T01:04:44.444Z,0
2016-06-07T01:05:45.978Z,0
2016-06-07T01:06:45.121Z,0
2016-06-07T01:07:44.499Z,0
2016-06-07T01:08:44.533Z,0
2016-06-07T01:09:44.536Z,0
2016-06-07T01:10:44.555Z,0
2016-06-07T01:11:44.416Z,0
2016-06-07T01:12:44.606Z,0
2016-06-07T01:13:44.640Z,0
2016-06-07T01:14:44.627Z,0
2016-06-07T01:15:44.662Z,0
2016-06-07T01:16:44.679Z,0
2016-06-07T01:17:44.714Z,0
2016-06-07T01:18:44.717Z,0
2016-06-07T01:19:44.765Z,0
2016-06-07T01:20:45.331Z,0
2016-06-07T01:21:45.225Z,0
2016-06-07T01:22:44.837Z,0
2016-06-07T01:23:44.823Z,0
2016-06-07T01:24:44.858Z,0
2016-06-07T01:25:44.860Z,0
2016-06-07T01:26:44.879Z,0
2016-06-07T01:27:44.912Z,0
2016-06-07T01:28:44.947Z,0
2016-06-07T01:29:44.964Z,0
2016-06-07T01:30:44.952Z,0
2016-06-07T01:31:44.986Z,0
2016-06-07T01:32:45.005Z,0
2016-06-07T01:33:45.022Z,0
2016-06-07T01:34:45.041Z,0
2016-06-07T01:35:45.668Z,0
2016-06-07T01:36:45.125Z,0
2016-06-07T01:37:45.127Z,0
2016-06-07T01:38:45.130Z,0
2016-06-07T01:39:45.132Z,0
2016-06-07T01:40:45.182Z,0
2016-06-07T01:41:45.185Z,0
2016-06-07T01:42:45.219Z,0
2016-06-07T01:43:45.221Z,0
2016-06-07T01:44:45.114Z,0
2016-06-07T01:45:45.257Z,0
2016-06-07T01:46:45.323Z,0
2016-06-07T01:47:45.309Z,0
2016-06-07T01:48:45.332Z,0
2016-06-07T01:49:45.381Z,0
2016-06-07T01:50:46.367Z,0
2016-06-07T01:51:45.557Z,0
2016-06-07T01:52:45.496Z,0
2016-06-07T01:53:45.496Z,0
2016-06-07T01:54:45.535Z,0
2016-06-07T01:55:45.434Z,0
2016-06-07T01:56:45.599Z,0
2016-06-07T01:57:45.622Z,0
2016-06-07T01:58:45.645Z,0
2016-06-07T01:59:45.649Z,0
2016-06-07T02:00:45.700Z,0
2016-06-07T02:01:45.721Z,0
2016-06-07T02:02:45.570Z,0
2016-06-07T02:03:45.745Z,0
2016-06-07T02:04:45.765Z,0
2016-06-07T02:05:45.800Z,0
2016-06-07T02:06:45.819Z,0
2016-06-07T02:07:45.681Z,0
2016-06-07T02:08:45.857Z,0
2016-06-07T02:09:45.891Z,0
2016-06-07T02:10:45.879Z,0
2016-06-07T02:11:45.912Z,0
2016-06-07T02:12:45.947Z,0
2016-06-07T02:13:45.950Z,0
2016-06-07T02:14:45.813Z,0
2016-06-07T02:15:46.002Z,0
2016-06-07T02:16:46.021Z,0
2016-06-07T02:17:46.054Z,0
2016-06-07T02:18:45.917Z,0
2016-06-07T02:19:46.076Z,0
2016-06-07T02:20:46.797Z,0
2016-06-07T02:21:46.815Z,0
2016-06-07T02:22:46.146Z,0
2016-06-07T02:23:46.180Z,0
2016-06-07T02:24:46.199Z,0
2016-06-07T02:25:46.217Z,0
2016-06-07T02:26:46.220Z,0
2016-06-07T02:27:46.238Z,0
2016-06-07T02:28:46.272Z,0
2016-06-07T02:29:46.275Z,0
2016-06-07T02:30:46.308Z,0
2016-06-07T02:31:46.170Z,0
2016-06-07T02:32:46.345Z,0
2016-06-07T02:33:46.364Z,0
2016-06-07T02:34:46.398Z,0
2016-06-07T02:35:46.384Z,0
2016-06-07T02:36:47.309Z,0
2016-06-07T02:37:46.452Z,0
2016-06-07T02:38:46.455Z,0
2016-06-07T02:39:46.489Z,0
2016-06-07T02:40:46.523Z,0
2016-06-07T02:41:46.525Z,0
2016-06-07T02:42:46.653Z,0
2016-06-07T02:43:46.422Z,0
2016-06-07T02:44:46.580Z,0
2016-06-07T02:45:46.474Z,0
2016-06-07T02:46:46.617Z,0
2016-06-07T02:47:46.635Z,0
2016-06-07T02:48:46.669Z,0
2016-06-07T02:49:46.687Z,0
2016-06-07T02:50:46.722Z,0
2016-06-07T02:51:46.585Z,0
2016-06-07T02:52:46.742Z,0
2016-06-07T02:53:46.777Z,0
2016-06-07T02:54:46.795Z,0
2016-06-07T02:55:46.813Z,0
2016-06-07T02:56:46.832Z,0
2016-06-07T02:57:46.850Z,0
2016-06-07T02:58:46.868Z,0
2016-06-07T02:59:46.715Z,0
2016-06-07T03:00:46.749Z,0
2016-06-07T03:01:46.923Z,0
2016-06-07T03:02:46.957Z,0
2016-06-07T03:03:46.959Z,0
2016-06-07T03:04:46.978Z,0
2016-06-07T03:05:47.028Z,0
2016-06-07T03:06:47.561Z,5
2016-06-07T03:07:47.048Z,5
2016-06-07T03:08:47.067Z,5
2016-06-07T03:09:47.086Z,5
2016-06-07T03:10:47.088Z,5
2016-06-07T03:11:47.122Z,5
2016-06-07T03:12:47.140Z,5
2016-06-07T03:13:47.174Z,5
2016-06-07T03:14:47.177Z,5
2016-06-07T03:15:47.210Z,5
2016-06-07T03:16:47.213Z,5
2016-06-07T03:17:47.247Z,5
2016-06-07T03:18:47.266Z,5
2016-06-07T03:19:47.285Z,5
2016-06-07T03:20:47.318Z,5
2016-06-07T03:21:47.727Z,10
2016-06-07T03:22:47.355Z,10
2016-06-07T03:23:47.357Z,10
2016-06-07T03:24:47.391Z,10
2016-06-07T03:25:47.426Z,10
2016-06-07T03:26:47.444Z,10
2016-06-07T03:27:47.446Z,10
2016-06-07T03:28:47.465Z,10
2016-06-07T03:29:47.498Z,15
2016-06-07T03:30:47.360Z,15
2016-06-07T03:31:47.535Z,15
2016-06-07T03:32:47.538Z,15
2016-06-07T03:33:47.587Z,15
2016-06-07T03:34:47.606Z,20
2016-06-07T03:35:47.608Z,20
2016-06-07T03:36:47.642Z,20
2016-06-07T03:37:47.629Z,20
2016-06-07T03:38:47.522Z,20
2016-06-07T03:39:47.681Z,25
2016-06-07T03:40:47.716Z,25
2016-06-07T03:41:47.734Z,25
2016-06-07T03:42:47.752Z,25
2016-06-07T03:43:47.770Z,25
2016-06-07T03:44:47.789Z,30
2016-06-07T03:45:47.650Z,30
2016-06-07T03:46:47.810Z,30
2016-06-07T03:47:47.844Z,30
2016-06-07T03:48:47.862Z,35
2016-06-07T03:49:47.911Z,35
2016-06-07T03:50:47.930Z,40
2016-06-07T03:51:48.371Z,40
2016-06-07T03:52:47.935Z,40
2016-06-07T03:53:47.797Z,40
2016-06-07T03:54:47.847Z,45
2016-06-07T03:55:47.990Z,45
2016-06-07T03:56:48.024Z,45
2016-06-07T03:57:48.057Z,50
2016-06-07T03:58:48.060Z,50
2016-06-07T03:59:48.095Z,50
2016-06-07T04:00:48.098Z,50
2016-06-07T04:01:48.148Z,55
2016-06-07T04:02:47.978Z,60
2016-06-07T04:03:48.184Z,60
2016-06-07T04:04:48.030Z,60
2016-06-07T04:05:48.220Z,65
2016-06-07T04:06:48.426Z,70
2016-06-07T04:07:48.242Z,70
2016-06-07T04:08:48.275Z,75
2016-06-07T04:09:48.294Z,75
2016-06-07T04:10:48.312Z,80
2016-06-07T04:11:48.330Z,80
2016-06-07T04:12:48.348Z,80
2016-06-07T04:13:48.039Z,85
2016-06-07T04:14:48.401Z,90
2016-06-07T04:15:48.388Z,90
2016-06-07T04:16:48.437Z,95
2016-06-07T04:17:48.441Z,95
2016-06-07T04:18:48.490Z,100
2016-06-07T04:19:48.352Z,100
2016-06-07T04:20:48.354Z,105
2016-06-07T04:21:48.654Z,105
2016-06-07T04:22:48.563Z,105
2016-06-07T04:23:48.566Z,110
2016-06-07T04:24:48.585Z,110
2016-06-07T04:25:48.602Z,115
2016-06-07T04:26:48.479Z,115
2016-06-07T04:27:48.655Z,115
2016-06-07T04:28:48.532Z,115
2016-06-07T04:29:48.691Z,115
2016-06-07T04:30:48.725Z,120
2016-06-07T04:31:48.729Z,120
2016-06-07T04:32:48.762Z,120
2016-06-07T04:33:48.779Z,125
2016-06-07T04:34:48.783Z,125
2016-06-07T04:35:48.519Z,125
2016-06-07T04:36:49.601Z,130
2016-06-07T04:37:50.228Z,130
2016-06-07T04:38:48.887Z,130
2016-06-07T04:39:48.764Z,135
2016-06-07T04:40:48.940Z,135
2016-06-07T04:41:48.942Z,135
2016-06-07T04:42:48.961Z,140
2016-06-07T04:43:48.994Z,140
2016-06-07T04:44:49.029Z,140
2016-06-07T04:45:48.874Z,145
2016-06-07T04:46:49.064Z,145
2016-06-07T04:47:49.083Z,145
2016-06-07T04:48:48.961Z,145
2016-06-07T04:49:49.120Z,150
2016-06-07T04:50:48.997Z,150
2016-06-07T04:51:49.313Z,150
2016-06-07T04:52:49.924Z,150
2016-06-07T04:53:49.208Z,145
2016-06-07T04:54:49.086Z,150
2016-06-07T04:55:49.261Z,155
2016-06-07T04:56:49.295Z,155
2016-06-07T04:57:49.282Z,155
2016-06-07T04:58:49.191Z,160
2016-06-07T04:59:49.335Z,160
2016-06-07T05:00:49.352Z,160
2016-06-07T05:01:49.355Z,165
2016-06-07T05:02:49.404Z,165
2016-06-07T05:03:49.407Z,160
2016-06-07T05:04:49.301Z,165
2016-06-07T05:05:49.445Z,170
2016-06-07T05:06:49.494Z,165
2016-06-07T05:07:50.590Z,165
2016-06-07T05:08:49.390Z,160
2016-06-07T05:09:49.533Z,165
2016-06-07T05:10:49.567Z,160
2016-06-07T05:11:49.601Z,165
2016-06-07T05:12:49.306Z,165
2016-06-07T05:13:49.637Z,160
2016-06-07T05:14:49.672Z,160
2016-06-07T05:15:49.675Z,170
2016-06-07T05:16:49.708Z,175
2016-06-07T05:17:49.726Z,170
2016-06-07T05:18:49.745Z,170
2016-06-07T05:19:49.778Z,165
2016-06-07T05:20:49.797Z,165
2016-06-07T05:21:49.518Z,165
2016-06-07T05:22:50.256Z,170
2016-06-07T05:23:49.868Z,170
2016-06-07T05:24:49.886Z,170
2016-06-07T05:25:49.904Z,170
2016-06-07T05:26:49.766Z,170
2016-06-07T05:27:49.800Z,175
2016-06-07T05:28:49.991Z,170
2016-06-07T05:29:49.821Z,170
2016-06-07T05:30:49.886Z,170
2016-06-07T05:31:50.029Z,175
2016-06-07T05:32:50.063Z,180
2016-06-07T05:33:50.082Z,170
2016-06-07T05:34:50.116Z,175
2016-06-07T05:35:50.119Z,175
2016-06-07T05:36:50.512Z,175
2016-06-07T05:37:50.530Z,170
2016-06-07T05:38:50.205Z,170
2016-06-07T05:39:50.239Z,165
2016-06-07T05:40:50.257Z,165
2016-06-07T05:41:50.259Z,160
2016-06-07T05:42:50.294Z,155
2016-06-07T05:43:50.297Z,160
2016-06-07T05:44:50.346Z,160
2016-06-07T05:45:50.333Z,160
2016-06-07T05:46:50.367Z,170
2016-06-07T05:47:50.369Z,175
2016-06-07T05:48:50.419Z,175
2016-06-07T05:49:50.469Z,175
2016-06-07T05:50:50.471Z,180
2016-06-07T05:51:51.036Z,180
2016-06-07T05:52:50.696Z,185
2016-06-07T05:53:50.511Z,185
2016-06-07T05:54:50.420Z,190
2016-06-07T05:55:50.563Z,195
2016-06-07T05:56:50.441Z,200
2016-06-07T05:57:50.460Z,200
2016-06-07T05:58:50.650Z,200
2016-06-07T05:59:50.668Z,205
2016-06-07T06:00:50.529Z,200
2016-06-07T06:01:50.705Z,205
2016-06-07T06:02:50.566Z,200
2016-06-07T06:03:50.757Z,200
2016-06-07T06:04:50.634Z,200
2016-06-07T06:05:50.793Z,200
2016-06-07T06:06:50.671Z,200
2016-06-07T06:08:05.487Z,200
2016-06-07T06:08:50.864Z,205
2016-06-07T06:09:50.882Z,205
2016-06-07T06:10:50.916Z,205
2016-06-07T06:11:50.934Z,200
2016-06-07T06:12:50.953Z,200
2016-06-07T06:13:50.987Z,195
2016-06-07T06:14:51.005Z,195
2016-06-07T06:15:51.023Z,195
2016-06-07T06:16:50.900Z,205
2016-06-07T06:17:51.060Z,210
2016-06-07T06:18:51.109Z,215
2016-06-07T06:19:51.159Z,220
2016-06-07T06:20:51.146Z,220
2016-06-07T06:21:51.180Z,220
2016-06-07T06:22:51.433Z,220
2016-06-07T06:23:51.201Z,225
2016-06-07T06:24:51.250Z,225
2016-06-07T06:25:51.253Z,225
2016-06-07T06:26:51.288Z,225
2016-06-07T06:27:51.008Z,225
2016-06-07T06:28:51.183Z,225
2016-06-07T06:29:51.029Z,225
2016-06-07T06:30:51.392Z,225
2016-06-07T06:31:51.379Z,225
2016-06-07T06:32:51.428Z,225
2016-06-07T06:33:51.432Z,235
2016-06-07T06:34:51.324Z,225
2016-06-07T06:35:51.482Z,225
2016-06-07T06:36:52.485Z,225
2016-06-07T06:37:52.223Z,230
2016-06-07T06:38:51.538Z,230
2016-06-07T06:39:51.587Z,230
2016-06-07T06:40:51.606Z,230
2016-06-07T06:41:51.623Z,235
2016-06-07T06:42:51.674Z,235
2016-06-07T06:43:51.677Z,235
2016-06-07T06:44:51.836Z,235
2016-06-07T06:45:51.713Z,235
2016-06-07T06:46:51.592Z,235
2016-06-07T06:47:51.625Z,235
2016-06-07T06:49:05.877Z,235
2016-06-07T06:49:51.818Z,235
2016-06-07T06:50:51.523Z,235
2016-06-07T06:51:52.214Z,230
2016-06-07T06:52:51.872Z,230
2016-06-07T06:53:51.939Z,235
2016-06-07T06:54:51.941Z,235
2016-06-07T06:55:51.974Z,225
2016-06-07T06:56:51.994Z,225
2016-06-07T06:57:51.996Z,225
2016-06-07T06:58:52.030Z,220
2016-06-07T06:59:52.063Z,220
2016-06-07T07:00:52.081Z,225
2016-06-07T07:01:52.100Z,230
2016-06-07T07:02:52.119Z,230
2016-06-07T07:03:52.137Z,235
2016-06-07T07:04:52.171Z,235
2016-06-07T07:05:52.189Z,235
2016-06-07T07:06:52.254Z,225
2016-06-07T07:07:52.304Z,215
2016-06-07T07:08:52.275Z,225
2016-06-07T07:09:52.278Z,230
2016-06-07T07:10:52.296Z,230
2016-06-07T07:11:52.329Z,235
2016-06-07T07:12:52.364Z,230
2016-06-07T07:13:52.398Z,230
2016-06-07T07:14:52.417Z,225
2016-06-07T07:15:52.434Z,225
2016-06-07T07:16:52.468Z,220
2016-06-07T07:17:52.487Z,215
2016-06-07T07:18:52.505Z,215
2016-06-07T07:19:52.539Z,220
2016-06-07T07:20:52.572Z,215
2016-06-07T07:21:53.217Z,215
2016-06-07T07:22:53.266Z,220
2016-06-07T07:23:52.627Z,220
2016-06-07T07:24:52.678Z,220
2016-06-07T07:25:52.696Z,220
2016-06-07T07:26:52.683Z,220
2016-06-07T07:27:52.732Z,220
2016-06-07T07:28:52.750Z,220
2016-06-07T07:29:52.785Z,220
2016-06-07T07:30:52.788Z,220
2016-06-07T07:31:52.837Z,220
2016-06-07T07:32:52.886Z,220
2016-06-07T07:33:52.843Z,215
2016-06-07T07:34:52.892Z,215
2016-06-07T07:35:52.926Z,220
2016-06-07T07:36:52.944Z,215
2016-06-07T07:37:53.588Z,210
2016-06-07T07:38:52.981Z,210
2016-06-07T07:39:53.014Z,205
2016-06-07T07:40:53.064Z,210
2016-06-07T07:41:53.052Z,210
2016-06-07T07:42:52.945Z,205
2016-06-07T07:43:53.104Z,195
2016-06-07T07:44:53.122Z,200
2016-06-07T07:45:53.156Z,210
2016-06-07T07:46:53.017Z,210
2016-06-07T07:47:53.193Z,210
2016-06-07T07:48:53.211Z,210
2016-06-07T07:49:53.244Z,210
2016-06-07T07:50:53.278Z,210
2016-06-07T07:51:53.812Z,215
2016-06-07T07:52:54.050Z,220
2016-06-07T07:53:53.333Z,215
2016-06-07T07:54:53.383Z,215
2016-06-07T07:55:53.370Z,215
2016-06-07T07:56:53.419Z,220
2016-06-07T07:57:53.438Z,220
2016-06-07T07:58:53.456Z,220
2016-06-07T07:59:53.475Z,220
2016-06-07T08:00:53.555Z,225
2016-06-07T08:01:53.511Z,225
2016-06-07T08:02:53.561Z,220
2016-06-07T08:03:53.610Z,225
2016-06-07T08:04:53.629Z,220
2016-06-07T08:05:53.615Z,220
2016-06-07T08:06:53.665Z,215
2016-06-07T08:07:54.169Z,215
2016-06-07T08:08:53.702Z,215
2016-06-07T08:09:53.721Z,220
2016-06-07T08:10:53.770Z,225
2016-06-07T08:11:53.773Z,225
2016-06-07T08:12:53.791Z,225
2016-06-07T08:13:53.809Z,220
2016-06-07T08:14:53.843Z,230
2016-06-07T08:15:53.876Z,230
2016-06-07T08:16:53.879Z,230
2016-06-07T08:17:53.929Z,230
2016-06-07T08:18:53.964Z,235
2016-06-07T08:19:53.982Z,230
2016-06-07T08:20:54.000Z,230
2016-06-07T08:21:54.002Z,230
2016-06-07T08:22:54.958Z,235
2016-06-07T08:23:54.071Z,230
2016-06-07T08:24:54.089Z,230
2016-06-07T08:25:54.107Z,230
2016-06-07T08:26:54.141Z,230
2016-06-07T08:27:54.175Z,230
2016-06-07T08:28:54.036Z,230
2016-06-07T08:29:54.228Z,230
2016-06-07T08:30:54.246Z,230
2016-06-07T08:31:54.264Z,230
2016-06-07T08:32:54.282Z,230
2016-06-07T08:33:53.988Z,230
2016-06-07T08:34:54.334Z,230
2016-06-07T08:35:54.071Z,225
2016-06-07T08:36:54.091Z,230
2016-06-07T08:37:55.890Z,230
2016-06-07T08:38:54.438Z,230
2016-06-07T08:39:54.457Z,225
2016-06-07T08:40:54.475Z,225
2016-06-07T08:41:54.510Z,225
2016-06-07T08:42:54.528Z,225
2016-06-07T08:43:54.546Z,225
2016-06-07T08:44:54.579Z,225
2016-06-07T08:45:54.598Z,225
2016-06-07T08:46:54.414Z,225
2016-06-07T08:47:54.651Z,225
2016-06-07T08:48:54.669Z,225
2016-06-07T08:49:54.703Z,225
2016-06-07T08:50:54.736Z,225
2016-06-07T08:51:54.740Z,220
2016-06-07T08:52:56.148Z,220
2016-06-07T08:53:54.792Z,220
2016-06-07T08:54:54.841Z,220
2016-06-07T08:55:54.844Z,225
2016-06-07T08:56:54.878Z,225
2016-06-07T08:57:54.881Z,225
2016-06-07T08:58:54.914Z,225
2016-06-07T09:00:05.105Z,220
2016-06-07T09:00:54.998Z,220
2016-06-07T09:01:55.016Z,220
2016-06-07T09:02:55.019Z,220
2016-06-07T09:03:54.897Z,220
2016-06-07T09:04:54.915Z,220
2016-06-07T09:05:55.105Z,220
2016-06-07T09:06:55.124Z,220
2016-06-07T09:07:55.345Z,220
2016-06-07T09:08:55.176Z,220
2016-06-07T09:09:55.194Z,225
2016-06-07T09:10:55.228Z,225
2016-06-07T09:11:55.247Z,220
2016-06-07T09:12:55.124Z,225
2016-06-07T09:13:55.283Z,225
2016-06-07T09:14:55.317Z,225
2016-06-07T09:15:55.335Z,225
2016-06-07T09:16:55.229Z,225
2016-06-07T09:17:55.403Z,225
2016-06-07T09:18:55.421Z,220
2016-06-07T09:19:55.440Z,220
2016-06-07T09:20:55.301Z,220
2016-06-07T09:21:55.509Z,225
2016-06-07T09:22:55.917Z,220
2016-06-07T09:23:56.606Z,220
2016-06-07T09:24:55.562Z,220
2016-06-07T09:25:55.597Z,225
2016-06-07T09:26:55.600Z,220
2016-06-07T09:27:55.650Z,220
2016-06-07T09:28:55.667Z,220
2016-06-07T09:29:55.685Z,215
2016-06-07T09:30:55.563Z,215
2016-06-07T09:31:55.739Z,215
2016-06-07T09:32:55.772Z,220
2016-06-07T09:33:55.837Z,215
2016-06-07T09:34:55.809Z,215
2016-06-07T09:35:55.842Z,210
2016-06-07T09:36:55.860Z,215
2016-06-07T09:37:56.879Z,210
2016-06-07T09:38:56.585Z,210
2016-06-07T09:39:55.790Z,210
2016-06-07T09:40:55.965Z,205
2016-06-07T09:41:55.968Z,205
2016-06-07T09:42:56.033Z,205
2016-06-07T09:43:56.035Z,200
2016-06-07T09:44:55.913Z,200
2016-06-07T09:45:56.072Z,200
2016-06-07T09:46:56.107Z,200
2016-06-07T09:47:56.156Z,205
2016-06-07T09:48:56.002Z,205
2016-06-07T09:49:56.193Z,210
2016-06-07T09:50:56.211Z,210
2016-06-07T09:51:56.229Z,210
2016-06-07T09:52:56.451Z,210
2016-06-07T09:53:56.578Z,210
2016-06-07T09:54:56.315Z,215
2016-06-07T09:55:56.334Z,215
2016-06-07T09:56:56.367Z,215
2016-06-07T09:57:56.386Z,215
2016-06-07T09:58:56.420Z,220
2016-06-07T09:59:56.422Z,215
2016-06-07T10:00:56.456Z,215
2016-06-07T10:01:56.334Z,215
2016-06-07T10:02:56.508Z,220
2016-06-07T10:03:56.542Z,220
2016-06-07T10:04:56.561Z,215
2016-06-07T10:05:56.580Z,215
2016-06-07T10:06:56.613Z,215
2016-06-07T10:07:56.835Z,220
2016-06-07T10:08:57.603Z,215
2016-06-07T10:09:56.669Z,215
2016-06-07T10:10:56.390Z,215
2016-06-07T10:11:56.735Z,215
2016-06-07T10:12:56.754Z,215
2016-06-07T10:13:56.788Z,215
2016-06-07T10:14:56.807Z,215
2016-06-07T10:15:56.825Z,215
2016-06-07T10:16:56.859Z,215
2016-06-07T10:17:56.893Z,215
2016-06-07T10:18:56.912Z,215
2016-06-07T10:19:56.916Z,215
2016-06-07T10:20:57.011Z,215
2016-06-07T10:21:56.982Z,215
2016-06-07T10:22:56.892Z,215
2016-06-07T10:23:57.551Z,215
2016-06-07T10:24:57.068Z,215
2016-06-07T10:25:57.088Z,215
2016-06-07T10:26:57.105Z,215
2016-06-07T10:27:57.124Z,215
2016-06-07T10:28:57.157Z,215
2016-06-07T10:30:16.879Z,215
2016-06-07T10:30:57.209Z,215
2016-06-07T10:31:57.260Z,215
2016-06-07T10:32:57.262Z,215
2016-06-07T10:33:57.296Z,215
2016-06-07T10:34:57.315Z,215
2016-06-07T10:35:57.333Z,220
2016-06-07T10:36:57.367Z,215
2016-06-07T10:37:57.931Z,215
2016-06-07T10:38:57.888Z,215
2016-06-07T10:39:57.437Z,215
2016-06-07T10:40:57.456Z,215
2016-06-07T10:41:57.506Z,215
2016-06-07T10:42:57.523Z,215
2016-06-07T10:43:57.401Z,215
2016-06-07T10:44:57.561Z,215
2016-06-07T10:45:57.594Z,210
2016-06-07T10:46:57.628Z,215
2016-06-07T10:47:57.646Z,215
2016-06-07T10:48:57.665Z,210
2016-06-07T10:49:57.527Z,215
2016-06-07T10:50:57.733Z,210
2016-06-07T10:51:57.422Z,210
2016-06-07T10:52:58.097Z,210
2016-06-07T10:53:57.896Z,210
2016-06-07T10:54:57.834Z,210
2016-06-07T10:55:57.727Z,210
2016-06-07T10:56:57.916Z,210
2016-06-07T10:57:57.981Z,210
2016-06-07T10:58:57.999Z,210
2016-06-07T10:59:58.024Z,210
2016-06-07T11:00:58.078Z,210
2016-06-07T11:01:58.071Z,210
2016-06-07T11:02:58.127Z,210
2016-06-07T11:03:58.150Z,210
2016-06-07T11:04:58.202Z,215
2016-06-07T11:05:58.190Z,210
2016-06-07T11:06:58.086Z,210
2016-06-07T11:07:58.544Z,210
2016-06-07T11:08:58.674Z,210
2016-06-07T11:09:58.162Z,210
2016-06-07T11:10:58.321Z,210
2016-06-07T11:11:58.215Z,210
2016-06-07T11:12:58.391Z,210
2016-06-07T11:13:58.425Z,210
2016-06-07T11:14:58.444Z,210
2016-06-07T11:15:58.463Z,210
2016-06-07T11:16:58.497Z,210
2016-06-07T11:17:58.547Z,210
2016-06-07T11:18:58.550Z,210
2016-06-07T11:19:58.569Z,210
2016-06-07T11:20:58.603Z,210
2016-06-07T11:21:58.620Z,215
2016-06-07T11:22:59.139Z,215
2016-06-07T11:23:58.844Z,215
2016-06-07T11:24:58.707Z,215
2016-06-07T11:25:58.569Z,215
2016-06-07T11:26:58.774Z,215
2016-06-07T11:27:58.622Z,220
2016-06-07T11:28:58.827Z,220
2016-06-07T11:29:58.689Z,220
2016-06-07T11:30:58.863Z,220
2016-06-07T11:31:58.867Z,220
2016-06-07T11:32:58.775Z,220
2016-06-07T11:33:58.950Z,220
2016-06-07T11:34:58.968Z,220
2016-06-07T11:35:58.987Z,220
2016-06-07T11:36:59.020Z,220
2016-06-07T11:37:59.038Z,220
2016-06-07T11:38:59.088Z,225
2016-06-07T11:39:59.106Z,225
2016-06-07T11:40:59.125Z,225
2016-06-07T11:41:59.143Z,225
2016-06-07T11:42:59.146Z,225
2016-06-07T11:43:59.212Z,225
2016-06-07T11:44:59.229Z,225
2016-06-07T11:45:59.092Z,230
2016-06-07T11:46:59.266Z,230
2016-06-07T11:47:59.315Z,230
2016-06-07T11:48:59.459Z,230
2016-06-07T11:49:59.337Z,230
2016-06-07T11:50:59.387Z,230
2016-06-07T11:51:59.405Z,230
2016-06-07T11:52:59.861Z,230
2016-06-07T11:53:59.472Z,235
2016-06-07T11:54:59.491Z,235
2016-06-07T11:55:59.352Z,235
2016-06-07T11:56:59.544Z,235
2016-06-07T11:57:59.577Z,235
2016-06-07T11:58:59.580Z,235
2016-06-07T11:59:59.614Z,240
2016-06-07T12:00:59.647Z,235
2016-06-07T12:01:59.697Z,235
2016-06-07T12:02:59.699Z,235
2016-06-07T12:03:59.718Z,235
2016-06-07T12:04:59.596Z,235
2016-06-07T12:05:59.771Z,235
2016-06-07T12:06:59.649Z,235
2016-06-07T12:07:59.823Z,235
2016-06-07T12:08:59.685Z,235
2016-06-07T12:09:59.874Z,240
2016-06-07T12:10:59.752Z,240
2016-06-07T12:11:59.770Z,240
2016-06-07T12:12:59.820Z,240
2016-06-07T12:13:59.979Z,240
2016-06-07T12:15:00.013Z,240
2016-06-07T12:16:00.048Z,240
2016-06-07T12:16:59.909Z,240
2016-06-07T12:18:00.084Z,240
2016-06-07T12:19:00.118Z,240
2016-06-07T12:20:00.011Z,240
2016-06-07T12:21:00.186Z,245
2016-06-07T12:22:00.236Z,250
2016-06-07T12:23:01.301Z,245
2016-06-07T12:24:01.303Z,245
2016-06-07T12:25:00.290Z,250
2016-06-07T12:26:00.340Z,245
2016-06-07T12:27:00.342Z,245
2016-06-07T12:28:00.377Z,245
2016-06-07T12:29:00.363Z,245
2016-06-07T12:30:00.413Z,245
2016-06-07T12:31:00.463Z,245
2016-06-07T12:32:00.559Z,250
2016-06-07T12:33:00.561Z,250
2016-06-07T12:34:00.377Z,250
2016-06-07T12:35:00.551Z,250
2016-06-07T12:36:00.569Z,250
2016-06-07T12:37:00.604Z,250
2016-06-07T12:38:00.621Z,250
2016-06-07T12:39:01.062Z,250
2016-06-07T12:40:00.659Z,250
2016-06-07T12:41:00.708Z,250
2016-06-07T12:42:00.727Z,250
2016-06-07T12:43:00.745Z,250
2016-06-07T12:44:00.795Z,250
2016-06-07T12:45:00.672Z,250
2016-06-07T12:46:00.846Z,255
2016-06-07T12:47:00.849Z,255
2016-06-07T12:48:00.899Z,255
2016-06-07T12:49:00.918Z,255
2016-06-07T12:50:00.951Z,260
2016-06-07T12:51:00.970Z,260
2016-06-07T12:52:01.020Z,260
2016-06-07T12:53:00.850Z,260
2016-06-07T12:54:01.712Z,260
2016-06-07T12:55:01.089Z,260
2016-06-07T12:56:02.936Z,265
2016-06-07T12:57:01.126Z,265
2016-06-07T12:58:01.161Z,265
2016-06-07T12:59:01.178Z,265
2016-06-07T13:00:01.213Z,265
2016-06-07T13:01:01.246Z,265
2016-06-07T13:02:00.968Z,265
2016-06-07T13:03:01.314Z,265
2016-06-07T13:04:01.317Z,265
2016-06-07T13:05:01.383Z,270
2016-06-07T13:06:01.244Z,270
2016-06-07T13:07:01.418Z,270
2016-06-07T13:08:01.422Z,270
2016-06-07T13:09:01.908Z,270
2016-06-07T13:10:01.740Z,270
2016-06-07T13:11:01.570Z,270
2016-06-07T13:12:01.557Z,270
2016-06-07T13:13:01.654Z,270
2016-06-07T13:14:01.437Z,270
2016-06-07T13:15:01.659Z,270
2016-06-07T13:16:01.490Z,270
2016-06-07T13:17:01.898Z,270
2016-06-07T13:18:01.698Z,275
2016-06-07T13:19:01.748Z,275
2016-06-07T13:20:01.782Z,275
2016-06-07T13:21:01.800Z,275
2016-06-07T13:22:01.803Z,275
2016-06-07T13:23:01.837Z,275
2016-06-07T13:24:01.730Z,275
2016-06-07T13:25:01.905Z,275
2016-06-07T13:26:01.766Z,275
2016-06-07T13:27:01.801Z,280
2016-06-07T13:28:01.976Z,280
2016-06-07T13:29:02.009Z,270
2016-06-07T13:30:02.028Z,280
2016-06-07T13:31:01.905Z,280
2016-06-07T13:32:02.080Z,280
2016-06-07T13:33:02.113Z,280
2016-06-07T13:34:02.163Z,280
2016-06-07T13:35:02.166Z,280
2016-06-07T13:36:02.200Z,280
2016-06-07T13:37:02.063Z,285
2016-06-07T13:38:02.268Z,285
2016-06-07T13:39:02.833Z,285
2016-06-07T13:40:02.055Z,285
2016-06-07T13:41:02.354Z,285
2016-06-07T13:42:02.371Z,285
2016-06-07T13:43:02.391Z,285
2016-06-07T13:44:02.424Z,285
2016-06-07T13:45:02.459Z,290
2016-06-07T13:46:02.679Z,290
2016-06-07T13:47:16.573Z,290
2016-06-07T13:48:02.529Z,290
2016-06-07T13:49:02.610Z,295
2016-06-07T13:50:02.598Z,295
2016-06-07T13:51:02.615Z,300
2016-06-07T13:52:16.711Z,305
2016-06-07T13:53:02.668Z,305
2016-06-07T13:54:02.967Z,310
2016-06-07T13:55:03.329Z,310
2016-06-07T13:56:16.801Z,315
2016-06-07T13:57:02.787Z,320
2016-06-07T13:58:02.821Z,315
2016-06-07T13:59:02.840Z,320
2016-06-07T14:00:02.874Z,320
2016-06-07T14:01:02.736Z,320
2016-06-07T14:02:02.911Z,325